Time;durP1;ratioP1;P1;durP2;ratioP2;P2;SDS_P1;SDS_P2;PMS_P1;PMS_P2;Temp;Humidity;BMP_temperature;BMP_pressure;BME280_temperature;BME280_humidity;BME280_pressure;Samples;Min_cycle;Max_cycle;Signal;HPM_P1;HPM_P2
2021/12/13 00:00:10;;;;;;;204.13;45.40;;;10.40;99.90;;;;;;5044230;28;20530;-77
2021/12/13 00:02:49;;;;;;;209.95;45.97;;;10.40;99.90;;;;;;5044624;28;20091;-72
2021/12/13 00:05:32;;;;;;;188.63;45.72;;;10.40;99.90;;;;;;5026633;28;20045;-72
2021/12/13 00:08:03;;;;;;;206.60;45.15;;;10.40;99.90;;;;;;5044321;28;20092;-72
2021/12/13 00:10:36;;;;;;;174.25;43.10;;;10.40;99.90;;;;;;5044308;28;20529;-71
2021/12/13 00:13:10;;;;;;;181.13;44.95;;;10.40;99.90;;;;;;5027522;28;20123;-71
2021/12/13 00:15:44;;;;;;;190.05;44.38;;;10.40;99.90;;;;;;5044265;28;20029;-71
2021/12/13 00:18:16;;;;;;;174.60;43.85;;;10.40;99.90;;;;;;5044265;28;20045;-72
2021/12/13 00:20:48;;;;;;;181.00;44.38;;;10.40;99.90;;;;;;5028056;28;20075;-71
2021/12/13 00:23:13;;;;;;;202.88;45.53;;;10.40;99.90;;;;;;5045109;28;20114;-76
2021/12/13 00:25:42;;;;;;;206.55;47.97;;;10.40;99.90;;;;;;5028902;28;20504;-77
2021/12/13 00:28:13;;;;;;;190.57;45.22;;;10.40;99.90;;;;;;5044876;28;20040;-77
2021/12/13 00:30:59;;;;;;;178.93;47.03;;;10.40;99.90;;;;;;5028546;28;20073;-77
2021/12/13 00:33:55;;;;;;;174.18;45.50;;;10.40;99.90;;;;;;5041596;28;20049;-77
2021/12/13 00:36:33;;;;;;;162.73;43.63;;;10.40;99.90;;;;;;5044433;28;20048;-77
2021/12/13 00:39:20;;;;;;;173.43;45.90;;;10.40;99.90;;;;;;5027726;28;20037;-76
2021/12/13 00:41:48;;;;;;;162.20;43.70;;;10.40;99.90;;;;;;5028754;28;20052;-73
2021/12/13 00:44:39;;;;;;;183.73;46.88;;;10.40;99.90;;;;;;5026374;28;20041;-72
2021/12/13 00:47:26;;;;;;;178.63;45.63;;;10.40;99.90;;;;;;5027677;28;20491;-72
2021/12/13 00:50:08;;;;;;;183.05;46.03;;;10.40;99.90;;;;;;5044327;28;20055;-72
2021/12/13 00:52:37;;;;;;;184.75;46.13;;;10.40;99.90;;;;;;5044169;28;20106;-72
2021/12/13 00:55:14;;;;;;;183.50;46.72;;;10.40;99.90;;;;;;5043852;28;20041;-72
2021/12/13 00:57:46;;;;;;;164.27;44.63;;;10.40;99.90;;;;;;5043821;28;20127;-72
2021/12/13 01:00:15;;;;;;;178.98;44.65;;;10.40;99.90;;;;;;5042373;28;20037;-71
2021/12/13 01:02:44;;;;;;;172.68;46.13;;;10.40;99.90;;;;;;5044041;28;20037;-71
2021/12/13 01:05:14;;;;;;;177.27;44.92;;;10.40;99.90;;;;;;5042101;28;20041;-71
2021/12/13 01:07:59;;;;;;;;;;;10.40;99.90;;;;;;5047530;28;20045;-71
2021/12/13 01:10:53;;;;;;;149.77;40.33;;;10.40;99.90;;;;;;5048515;28;19943;-73
2021/12/13 01:13:46;;;;;;;147.82;39.08;;;10.40;99.90;;;;;;5028533;28;20406;-73
2021/12/13 01:16:52;;;;;;;125.68;36.63;;;10.40;99.90;;;;;;5047448;28;20033;-71
2021/12/13 01:19:32;;;;;;;112.47;33.78;;;10.40;99.90;;;;;;5046958;28;20381;-73
2021/12/13 01:22:38;;;;;;;92.80;32.83;;;10.40;99.90;;;;;;5046844;28;20045;-71
2021/12/13 01:25:44;;;;;;;110.43;35.10;;;10.40;99.90;;;;;;5047007;28;20500;-71
2021/12/13 01:28:18;;;;;;;86.70;30.30;;;10.40;99.90;;;;;;5030497;28;20045;-71
2021/12/13 01:30:53;;;;;;;116.55;33.03;;;10.50;99.90;;;;;;5031003;28;20041;-71
2021/12/13 01:33:21;;;;;;;82.50;29.67;;;10.50;99.90;;;;;;5045385;28;20075;-71
2021/12/13 01:35:51;;;;;;;92.55;30.33;;;10.50;99.90;;;;;;5027930;28;20110;-71
2021/12/13 01:38:32;;;;;;;88.70;28.83;;;10.50;99.90;;;;;;5030461;28;20530;-71
2021/12/13 01:41:01;;;;;;;89.13;28.50;;;10.50;99.90;;;;;;5047556;28;20052;-71
2021/12/13 01:43:31;;;;;;;86.72;29.35;;;10.50;99.90;;;;;;5045325;28;20056;-71
2021/12/13 01:45:59;;;;;;;77.78;28.90;;;10.50;99.90;;;;;;5030898;28;20107;-71
2021/12/13 01:48:31;;;;;;;105.07;31.35;;;10.50;99.90;;;;;;5047245;28;20033;-70
2021/12/13 01:51:06;;;;;;;82.70;30.88;;;10.50;99.90;;;;;;5030879;28;20067;-71
2021/12/13 01:53:57;;;;;;;75.07;29.88;;;10.50;99.90;;;;;;5047098;28;20102;-72
2021/12/13 01:56:48;;;;;;;78.68;30.20;;;10.50;99.90;;;;;;5044283;28;20052;-72
2021/12/13 02:02:25;;;;;;;71.90;30.25;;;10.40;99.90;;;;;;5047113;28;20416;-72
2021/12/13 02:05:10;;;;;;;82.32;30.65;;;10.40;99.90;;;;;;5038468;28;20080;-71
2021/12/13 02:07:50;;;;;;;87.82;32.40;;;10.40;99.90;;;;;;5045902;28;20076;-71
2021/12/13 02:10:27;;;;;;;72.45;30.23;;;10.50;99.90;;;;;;5030037;28;20404;-71
2021/12/13 02:13:01;;;;;;;76.47;31.80;;;10.50;99.90;;;;;;5029094;28;20057;-71
2021/12/13 02:18:22;;;;;;;88.78;34.78;;;10.50;99.90;;;;;;5045984;28;20076;-71
2021/12/13 02:21:25;;;;;;;84.15;34.08;;;10.50;99.90;;;;;;5027684;28;20040;-71
2021/12/13 02:23:57;;;;;;;93.65;33.63;;;10.50;99.90;;;;;;5029158;28;20051;-71
2021/12/13 02:26:26;;;;;;;110.35;36.67;;;10.50;99.90;;;;;;5046524;28;20072;-72
2021/12/13 02:29:03;;;;;;;82.97;33.77;;;10.50;99.90;;;;;;5046838;28;20045;-71
2021/12/13 02:31:35;;;;;;;76.78;32.55;;;10.50;99.90;;;;;;5045615;28;20037;-71
2021/12/13 02:34:15;;;;;;;97.30;34.53;;;10.50;99.90;;;;;;5029414;28;20113;-76
2021/12/13 02:36:48;;;;;;;88.75;34.85;;;10.50;99.90;;;;;;5025848;28;20539;-77
2021/12/13 02:39:22;;;;;;;76.05;33.22;;;10.40;99.90;;;;;;5030431;28;20047;-77
2021/12/13 02:41:48;;;;;;;77.22;35.25;;;10.40;99.90;;;;;;5045676;28;20040;-73
2021/12/13 02:44:37;;;;;;;79.60;32.15;;;10.40;99.90;;;;;;5027988;28;20068;-73
2021/12/13 02:47:07;;;;;;;83.15;33.85;;;10.40;99.90;;;;;;5045625;28;20049;-74
2021/12/13 02:49:33;;;;;;;;;;;10.50;99.90;;;;;;5029816;28;20510;-73
2021/12/13 02:52:03;;;;;;;66.95;29.92;;;10.40;99.90;;;;;;5027688;28;19920;-73
2021/12/13 02:54:35;;;;;;;74.75;31.48;;;10.40;99.90;;;;;;5045497;28;20766;-73
2021/12/13 02:57:21;;;;;;;70.53;32.42;;;10.40;99.90;;;;;;5045155;28;20749;-73
2021/12/13 02:59:58;;;;;;;62.50;30.38;;;10.40;99.90;;;;;;5044564;28;20118;-73
2021/12/13 03:02:35;;;;;;;75.03;33.58;;;10.40;99.90;;;;;;5042158;28;20088;-72
2021/12/13 03:05:03;;;;;;;68.00;33.08;;;10.40;99.90;;;;;;5026977;28;20135;-72
2021/12/13 03:07:37;;;;;;;66.13;32.22;;;10.40;99.90;;;;;;5032562;28;20205;-72
2021/12/13 03:10:12;;;;;;;67.82;31.48;;;10.50;99.90;;;;;;5045937;28;20061;-72
2021/12/13 03:12:38;;;;;;;69.13;31.83;;;10.40;99.90;;;;;;5030492;28;20474;-72
2021/12/13 03:15:13;;;;;;;69.15;30.25;;;10.40;99.90;;;;;;5046153;28;20076;-72
2021/12/13 03:17:48;;;;;;;62.45;30.33;;;10.40;99.90;;;;;;5047345;28;20130;-72
2021/12/13 03:20:28;;;;;;;61.30;29.27;;;10.40;99.90;;;;;;5030196;28;20491;-72
2021/12/13 03:23:07;;;;;;;;;;;10.30;99.90;;;;;;5046544;28;20041;-72
2021/12/13 03:25:39;;;;;;;59.00;29.75;;;10.30;99.90;;;;;;5040193;28;19928;-72
2021/12/13 03:28:17;;;;;;;57.03;29.02;;;10.30;99.90;;;;;;5029345;28;20083;-72
2021/12/13 03:31:01;;;;;;;58.95;28.13;;;10.30;99.90;;;;;;5046694;28;20115;-72
2021/12/13 03:33:35;;;;;;;53.70;27.52;;;10.30;99.90;;;;;;5029603;28;20491;-72
2021/12/13 03:36:07;;;;;;;50.80;26.40;;;10.30;99.90;;;;;;5034717;28;20381;-71
2021/12/13 03:38:37;;;;;;;48.60;25.67;;;10.30;99.90;;;;;;5027014;28;20057;-72
2021/12/13 03:41:14;;;;;;;45.25;23.92;;;10.30;99.90;;;;;;5009959;28;20045;-72
2021/12/13 03:43:49;;;;;;;51.50;25.10;;;10.30;99.90;;;;;;5026626;28;20053;-72
2021/12/13 03:46:18;;;;;;;45.28;24.20;;;10.30;99.90;;;;;;5027514;28;20123;-72
2021/12/13 03:48:46;;;;;;;45.50;24.95;;;10.20;99.90;;;;;;5038513;28;20052;-72
2021/12/13 03:51:17;;;;;;;47.13;24.33;;;10.20;99.90;;;;;;5029114;28;20037;-72
2021/12/13 03:53:48;;;;;;;42.75;24.90;;;10.10;99.90;;;;;;5043870;28;20114;-72
2021/12/13 03:56:28;;;;;;;42.95;23.95;;;10.10;99.90;;;;;;5045773;28;20082;-72
2021/12/13 03:59:10;;;;;;;38.88;23.23;;;10.10;99.90;;;;;;5029486;28;20044;-73
2021/12/13 04:01:59;;;;;;;39.78;23.08;;;10.10;99.90;;;;;;5029811;28;20056;-72
2021/12/13 04:04:34;;;;;;;37.00;21.23;;;10.10;99.90;;;;;;5031099;28;20057;-72
2021/12/13 04:07:07;;;;;;;36.63;21.08;;;10.00;99.90;;;;;;5028973;28;20067;-71
2021/12/13 04:09:33;;;;;;;36.17;20.85;;;10.00;99.90;;;;;;5045150;28;20049;-72
2021/12/13 04:12:04;;;;;;;34.28;19.70;;;10.00;99.90;;;;;;5030052;28;20049;-72
2021/12/13 04:14:39;;;;;;;31.60;19.75;;;10.00;99.90;;;;;;5047199;28;20045;-73
2021/12/13 04:17:20;;;;;;;36.05;19.80;;;9.90;99.90;;;;;;5029466;28;20150;-72
2021/12/13 04:19:57;;;;;;;29.58;17.92;;;9.90;99.90;;;;;;5046415;28;20053;-72
2021/12/13 04:22:28;;;;;;;30.40;19.05;;;9.80;99.90;;;;;;5045542;28;20056;-72
2021/12/13 04:25:07;;;;;;;36.42;19.90;;;9.80;99.90;;;;;;5045155;28;20060;-72
2021/12/13 04:27:43;;;;;;;36.38;20.85;;;9.80;99.90;;;;;;5029549;28;20053;-72
2021/12/13 04:30:19;;;;;;;33.15;20.55;;;9.80;99.90;;;;;;5045262;28;20052;-72
2021/12/13 04:32:50;;;;;;;33.55;20.52;;;9.80;99.90;;;;;;5041634;28;20060;-72
2021/12/13 04:35:16;;;;;;;32.65;19.63;;;9.70;99.90;;;;;;5024628;28;20446;-72
2021/12/13 04:37:48;;;;;;;32.30;19.60;;;9.70;99.90;;;;;;4993632;28;20049;-72
2021/12/13 04:40:24;;;;;;;33.78;19.48;;;9.70;99.90;;;;;;5010482;28;20080;-73
2021/12/13 04:43:10;;;;;;;35.97;19.27;;;9.70;99.90;;;;;;5040340;28;20045;-72
2021/12/13 04:45:40;;;;;;;37.22;18.65;;;9.60;99.90;;;;;;5030373;28;20053;-72
2021/12/13 04:48:08;;;;;;;33.50;18.90;;;9.60;99.90;;;;;;5029570;28;20136;-73
2021/12/13 04:50:58;;;;;;;30.30;17.52;;;9.60;99.90;;;;;;5047077;28;20046;-72
2021/12/13 04:53:36;;;;;;;37.87;18.57;;;9.60;99.90;;;;;;5029634;28;20048;-73
2021/12/13 04:56:13;;;;;;;27.95;17.83;;;9.60;99.90;;;;;;5029545;28;20049;-72
2021/12/13 04:58:41;;;;;;;31.15;18.30;;;9.60;99.90;;;;;;5034890;28;20051;-72
2021/12/13 05:01:10;;;;;;;31.90;17.83;;;9.60;99.90;;;;;;5045011;28;20041;-72
2021/12/13 05:03:42;;;;;;;31.02;17.30;;;9.50;99.90;;;;;;5033188;28;20057;-72
2021/12/13 05:06:14;;;;;;;33.95;18.70;;;9.50;99.90;;;;;;5036914;28;20388;-72
2021/12/13 05:08:43;;;;;;;36.83;18.92;;;9.50;99.90;;;;;;5014806;28;20057;-72
2021/12/13 05:11:10;;;;;;;31.35;18.08;;;9.50;99.90;;;;;;5048681;28;20518;-72
2021/12/13 05:13:39;;;;;;;34.30;18.75;;;9.60;99.90;;;;;;5049700;28;20063;-72
2021/12/13 05:16:11;;;;;;;32.85;18.02;;;9.60;99.90;;;;;;5047614;28;20110;-72
2021/12/13 05:19:04;;;;;;;31.23;19.00;;;9.60;99.90;;;;;;5029593;28;20508;-73
2021/12/13 05:21:46;;;;;;;35.92;18.63;;;9.60;99.90;;;;;;5038645;28;20056;-72
2021/12/13 05:24:26;;;;;;;33.55;18.63;;;9.60;99.90;;;;;;5031962;28;20072;-77
2021/12/13 05:27:00;;;;;;;31.75;18.50;;;9.60;99.90;;;;;;5032588;28;20558;-77
2021/12/13 05:29:48;;;;;;;28.73;17.67;;;9.50;99.90;;;;;;5048665;28;20636;-77
2021/12/13 05:32:30;;;;;;;26.88;16.85;;;9.50;99.90;;;;;;5021361;28;20552;-77
2021/12/13 05:35:39;;;;;;;32.58;16.77;;;9.60;99.90;;;;;;5029681;28;20539;-77
2021/12/13 05:38:22;;;;;;;30.40;16.90;;;9.60;99.90;;;;;;4990973;28;20489;-78
2021/12/13 05:40:48;;;;;;;30.13;16.98;;;9.50;99.90;;;;;;4991751;28;20045;-77
2021/12/13 05:43:48;;;;;;;26.55;16.17;;;9.50;99.90;;;;;;5014529;28;20080;-77
2021/12/13 05:46:39;;;;;;;23.00;14.68;;;9.50;99.90;;;;;;5037300;28;20097;-77
2021/12/13 05:49:09;;;;;;;23.48;15.32;;;9.50;99.90;;;;;;5032053;28;20041;-77
2021/12/13 05:51:44;;;;;;;24.95;14.95;;;9.50;99.90;;;;;;5048308;28;20049;-77
2021/12/13 05:54:14;;;;;;;24.65;15.85;;;9.50;99.90;;;;;;5048551;28;20045;-77
2021/12/13 05:56:46;;;;;;;23.55;13.70;;;9.50;99.90;;;;;;5034425;28;20041;-77
2021/12/13 05:59:15;;;;;;;21.65;13.77;;;9.50;99.90;;;;;;5021647;28;20053;-72
2021/12/13 06:02:11;;;;;;;20.58;13.50;;;9.50;99.90;;;;;;5028511;28;20053;-73
2021/12/13 06:05:06;;;;;;;20.20;13.20;;;9.50;99.90;;;;;;5047995;28;20075;-72
2021/12/13 06:07:40;;;;;;;20.20;12.25;;;9.50;99.90;;;;;;5047660;28;20173;-72
2021/12/13 06:10:14;;;;;;;23.85;13.80;;;9.50;99.90;;;;;;5024787;28;20067;-72
2021/12/13 06:13:03;;;;;;;17.45;12.55;;;9.60;99.90;;;;;;5038758;28;20057;-72
2021/12/13 06:15:29;;;;;;;23.17;13.40;;;9.60;99.90;;;;;;5028394;28;20049;-72
2021/12/13 06:18:11;;;;;;;20.45;13.23;;;9.50;99.90;;;;;;5047762;28;20298;-72
2021/12/13 06:20:40;;;;;;;22.15;14.20;;;9.50;99.90;;;;;;5047125;28;20044;-72
2021/12/13 06:23:20;;;;;;;24.60;14.18;;;9.50;99.90;;;;;;5046227;28;20051;-73
2021/12/13 06:25:52;;;;;;;25.90;15.20;;;9.60;99.90;;;;;;5046467;28;20512;-72
2021/12/13 06:28:31;;;;;;;23.33;14.35;;;9.50;99.90;;;;;;5045658;28;20041;-73
2021/12/13 06:31:11;;;;;;;24.40;15.88;;;9.50;99.90;;;;;;5029999;28;20090;-72
2021/12/13 06:34:06;;;;;;;;;;;9.50;99.90;;;;;;5020834;28;20041;-72
2021/12/13 06:36:32;;;;;;;21.92;15.45;;;9.50;99.90;;;;;;5036955;28;20315;-73
2021/12/13 06:39:03;;;;;;;26.92;17.10;;;9.50;99.90;;;;;;5023475;28;20048;-72
2021/12/13 06:41:29;;;;;;;30.83;17.65;;;9.50;99.90;;;;;;5040810;28;20044;-72
2021/12/13 06:44:06;;;;;;;25.48;17.20;;;9.50;99.90;;;;;;5022650;28;20128;-72
2021/12/13 06:46:38;;;;;;;29.40;18.52;;;9.50;99.90;;;;;;5025016;28;20056;-72
2021/12/13 06:49:14;;;;;;;25.92;18.63;;;9.50;99.90;;;;;;5035365;28;20044;-72
2021/12/13 06:51:58;;;;;;;28.73;19.38;;;9.50;99.90;;;;;;5033398;28;20068;-72
2021/12/13 06:54:29;;;;;;;29.17;20.45;;;9.60;99.90;;;;;;5040717;28;20044;-72
2021/12/13 06:57:06;;;;;;;30.65;20.52;;;9.50;99.90;;;;;;5036562;28;20048;-71
2021/12/13 06:59:35;;;;;;;31.17;20.98;;;9.60;99.90;;;;;;5039558;28;20052;-71
2021/12/13 07:02:10;;;;;;;31.63;20.73;;;9.60;99.90;;;;;;5043614;28;20459;-71
2021/12/13 07:04:59;;;;;;;30.75;22.17;;;9.50;99.90;;;;;;5028203;28;20060;-71
2021/12/13 07:07:48;;;;;;;33.10;23.23;;;9.60;99.90;;;;;;5044664;28;20036;-71
2021/12/13 07:10:20;;;;;;;29.30;22.55;;;9.50;99.90;;;;;;5043884;28;20053;-72
2021/12/13 07:12:57;;;;;;;34.13;23.38;;;9.50;99.90;;;;;;5028530;28;20131;-71
2021/12/13 07:15:28;;;;;;;34.10;23.83;;;9.50;99.90;;;;;;5038668;28;20495;-71
2021/12/13 07:18:07;;;;;;;33.60;24.17;;;9.50;99.90;;;;;;5040252;28;20135;-71
2021/12/13 07:20:58;;;;;;;32.00;22.88;;;9.50;99.90;;;;;;5035935;28;20064;-71
2021/12/13 07:23:24;;;;;;;36.80;25.20;;;9.50;99.90;;;;;;5037691;28;20107;-76
2021/12/13 07:25:55;;;;;;;35.33;25.38;;;9.50;99.90;;;;;;5029303;28;21962;-76
2021/12/13 07:28:50;;;;;;;36.38;24.77;;;9.50;99.90;;;;;;5027949;28;20077;-76
2021/12/13 07:31:17;;;;;;;35.13;25.65;;;9.50;99.90;;;;;;5043102;28;20051;-76
2021/12/13 07:33:45;;;;;;;42.22;27.48;;;9.50;99.90;;;;;;5027832;28;20098;-76
2021/12/13 07:36:37;;;;;;;37.50;26.75;;;9.50;99.90;;;;;;5043483;28;20095;-71
2021/12/13 07:39:14;;;;;;;36.97;26.85;;;9.50;99.90;;;;;;5042535;28;20060;-71
2021/12/13 07:41:46;;;;;;;35.55;26.50;;;9.50;99.90;;;;;;5044116;28;20037;-71
2021/12/13 07:44:25;;;;;;;40.58;29.23;;;9.50;99.90;;;;;;5038109;28;20488;-71
2021/12/13 07:47:08;;;;;;;38.67;28.63;;;9.50;99.90;;;;;;5020825;28;20103;-71
2021/12/13 07:49:38;;;;;;;41.58;30.52;;;9.50;99.90;;;;;;5027180;28;20040;-71
2021/12/13 07:52:06;;;;;;;41.72;29.35;;;9.50;99.90;;;;;;5043227;28;20114;-71
2021/12/13 07:54:42;;;;;;;45.03;30.65;;;9.50;99.90;;;;;;5041151;28;20049;-71
2021/12/13 07:57:31;;;;;;;46.90;31.40;;;9.50;99.90;;;;;;5036417;28;20063;-72
2021/12/13 07:59:58;;;;;;;45.28;31.13;;;9.50;99.90;;;;;;5040538;28;20064;-72
2021/12/13 08:02:25;;;;;;;47.05;33.10;;;9.50;99.90;;;;;;5038971;28;20061;-72
2021/12/13 08:05:11;;;;;;;44.33;32.70;;;9.50;99.90;;;;;;5035910;28;20057;-71
2021/12/13 08:07:49;;;;;;;45.95;33.55;;;9.50;99.90;;;;;;5042414;28;20044;-72
2021/12/13 08:10:39;;;;;;;48.28;33.08;;;9.50;99.90;;;;;;5023513;28;20033;-72
2021/12/13 08:13:21;;;;;;;47.08;33.30;;;9.50;99.90;;;;;;5039450;28;20049;-72
2021/12/13 08:15:50;;;;;;;46.90;34.42;;;9.60;99.90;;;;;;5024814;28;20045;-71
2021/12/13 08:18:32;;;;;;;49.28;33.65;;;9.50;99.90;;;;;;5017462;28;20051;-72
2021/12/13 08:21:03;;;;;;;53.17;35.53;;;9.50;99.90;;;;;;5020412;28;20064;-72
2021/12/13 08:23:46;;;;;;;46.83;35.47;;;9.50;99.90;;;;;;5025257;28;20047;-72
2021/12/13 08:26:23;;;;;;;49.80;35.28;;;9.50;99.90;;;;;;5042532;28;20123;-72
2021/12/13 08:28:53;;;;;;;50.55;35.88;;;9.50;99.90;;;;;;5042418;28;20048;-72
2021/12/13 08:31:25;;;;;;;54.77;38.53;;;9.50;99.90;;;;;;5022210;28;20782;-72
2021/12/13 08:33:54;;;;;;;48.30;35.70;;;9.60;99.90;;;;;;5018491;28;20072;-72
2021/12/13 08:36:23;;;;;;;47.03;35.10;;;9.60;99.90;;;;;;5034734;28;20123;-72
2021/12/13 08:38:50;;;;;;;49.53;35.58;;;9.60;99.90;;;;;;5022766;28;20418;-71
2021/12/13 08:41:25;;;;;;;51.95;34.97;;;9.60;99.90;;;;;;5035549;28;20717;-72
2021/12/13 08:44:01;;;;;;;44.08;33.53;;;9.60;99.90;;;;;;5023948;28;20040;-72
2021/12/13 08:46:30;;;;;;;47.78;34.63;;;9.60;99.90;;;;;;5044194;28;20059;-72
2021/12/13 08:48:56;;;;;;;55.60;39.70;;;9.60;99.90;;;;;;5042708;28;20504;-72
2021/12/13 08:51:25;;;;;;;54.97;39.38;;;9.60;99.90;;;;;;5026792;28;20098;-72
2021/12/13 08:54:05;;;;;;;51.20;37.97;;;9.60;99.90;;;;;;5027603;28;20048;-72
2021/12/13 08:56:40;;;;;;;77.30;55.28;;;9.60;99.90;;;;;;5025217;28;20503;-72
2021/12/13 08:59:16;;;;;;;59.50;46.08;;;9.60;99.90;;;;;;5027858;28;20051;-72
2021/12/13 09:01:46;;;;;;;50.72;37.22;;;9.60;99.90;;;;;;5025731;28;20065;-72
2021/12/13 09:04:31;;;;;;;45.67;33.97;;;9.60;99.90;;;;;;5039865;28;20516;-72
2021/12/13 09:07:03;;;;;;;40.47;32.50;;;9.60;99.90;;;;;;5040211;28;20094;-72
2021/12/13 09:09:33;;;;;;;41.55;32.60;;;9.60;99.90;;;;;;5039437;28;20642;-72
2021/12/13 09:12:01;;;;;;;;;;;9.60;99.90;;;;;;5023989;28;20087;-72
2021/12/13 09:14:43;;;;;;;44.55;34.38;;;9.60;99.90;;;;;;5024945;28;19924;-72
2021/12/13 09:17:24;;;;;;;43.40;33.30;;;9.60;99.90;;;;;;5035945;28;20573;-72
2021/12/13 09:19:53;;;;;;;40.53;31.75;;;9.60;99.90;;;;;;5024018;28;20091;-72
2021/12/13 09:22:24;;;;;;;42.58;32.45;;;9.70;99.90;;;;;;5040663;28;20310;-72
2021/12/13 09:25:10;;;;;;;42.10;32.58;;;9.70;99.90;;;;;;5022823;28;20410;-71
2021/12/13 09:28:02;;;;;;;42.35;33.47;;;9.70;99.90;;;;;;5033481;28;20148;-72
2021/12/13 09:30:53;;;;;;;46.55;35.10;;;9.70;99.90;;;;;;5043727;28;20273;-71
2021/12/13 09:33:38;;;;;;;48.45;36.78;;;9.70;99.90;;;;;;5024890;28;20077;-72
2021/12/13 09:36:15;;;;;;;47.88;34.47;;;9.80;99.90;;;;;;5023217;28;20038;-72
2021/12/13 09:38:58;;;;;;;36.47;30.25;;;9.70;99.90;;;;;;5026763;28;20049;-72
2021/12/13 09:41:47;;;;;;;40.45;30.67;;;9.80;99.90;;;;;;5058724;28;20143;-72
2021/12/13 09:44:32;;;;;;;36.70;28.80;;;9.80;99.90;;;;;;5036889;28;20499;-71
2021/12/13 09:47:09;;;;;;;36.30;27.88;;;9.90;99.90;;;;;;5032883;28;21474;-72
2021/12/13 09:49:59;;;;;;;34.63;27.15;;;9.90;99.90;;;;;;5025727;28;20787;-72
2021/12/13 09:52:42;;;;;;;34.42;28.52;;;9.80;99.90;;;;;;5056081;28;20056;-72
2021/12/13 09:55:21;;;;;;;33.72;27.63;;;9.80;99.90;;;;;;5029772;28;20036;-72
2021/12/13 09:58:33;;;;;;;36.47;27.63;;;9.90;99.90;;;;;;5020703;28;20053;-71
2021/12/13 10:01:26;;;;;;;35.63;27.23;;;9.90;99.90;;;;;;5015048;28;20052;-71
2021/12/13 10:04:04;;;;;;;36.45;26.80;;;9.80;99.90;;;;;;5024701;28;20091;-71
2021/12/13 10:06:38;;;;;;;34.33;26.73;;;9.90;99.90;;;;;;5022162;28;20059;-71
2021/12/13 10:09:25;;;;;;;32.80;24.95;;;9.90;99.90;;;;;;5036920;28;20045;-71
2021/12/13 10:12:01;;;;;;;32.63;25.27;;;9.90;99.90;;;;;;5033574;28;20044;-71
2021/12/13 10:14:32;;;;;;;32.53;25.15;;;9.90;99.90;;;;;;5043775;28;20049;-72
2021/12/13 10:17:01;;;;;;;31.92;25.40;;;9.90;99.90;;;;;;5039831;28;20064;-71
2021/12/13 10:19:40;;;;;;;33.75;24.23;;;9.90;99.90;;;;;;5018068;28;20040;-71
2021/12/13 10:22:16;;;;;;;33.70;25.33;;;9.90;99.90;;;;;;5053827;28;20041;-72
2021/12/13 10:24:53;;;;;;;32.45;23.63;;;10.00;99.90;;;;;;5038115;28;20041;-72
2021/12/13 10:27:20;;;;;;;32.88;25.45;;;10.00;99.90;;;;;;5054438;28;20063;-71
2021/12/13 10:29:54;;;;;;;34.67;24.98;;;10.00;99.90;;;;;;5037599;28;20499;-72
2021/12/13 10:32:24;;;;;;;29.73;23.48;;;10.00;99.90;;;;;;5037419;28;20496;-71
2021/12/13 10:35:03;;;;;;;34.80;25.85;;;10.00;99.90;;;;;;5021511;28;20049;-71
2021/12/13 10:37:40;;;;;;;34.17;24.53;;;10.00;99.90;;;;;;5053782;28;20512;-71
2021/12/13 10:40:14;;;;;;;32.97;24.20;;;10.00;99.90;;;;;;5040406;28;20292;-71
2021/12/13 10:42:45;;;;;;;32.17;24.08;;;10.00;99.90;;;;;;5050203;28;20053;-71
2021/12/13 10:45:19;;;;;;;31.40;23.65;;;10.00;99.90;;;;;;5018098;28;20497;-71
2021/12/13 10:47:49;;;;;;;33.80;23.70;;;10.00;99.90;;;;;;5034969;28;20103;-71
2021/12/13 10:50:19;;;;;;;33.97;23.85;;;10.00;99.90;;;;;;5024310;28;20789;-71
2021/12/13 10:52:48;;;;;;;31.27;23.75;;;10.00;99.90;;;;;;5045275;28;20057;-71
2021/12/13 10:55:44;;;;;;;30.50;23.35;;;10.00;99.90;;;;;;5012925;28;20045;-71
2021/12/13 10:58:13;;;;;;;30.85;23.52;;;10.00;99.90;;;;;;5039024;28;20057;-71
2021/12/13 11:00:47;;;;;;;32.35;22.63;;;10.10;99.90;;;;;;5029329;28;20758;-71
2021/12/13 11:03:21;;;;;;;28.27;20.90;;;10.10;99.90;;;;;;5061520;28;20075;-71
2021/12/13 11:05:47;;;;;;;30.92;23.13;;;10.10;99.90;;;;;;5034867;28;20037;-71
2021/12/13 11:08:16;;;;;;;32.05;22.08;;;10.10;99.90;;;;;;5016503;28;20036;-71
2021/12/13 11:11:08;;;;;;;28.40;20.98;;;10.10;99.90;;;;;;5025681;28;20109;-71
2021/12/13 11:13:37;;;;;;;26.40;20.48;;;10.20;99.90;;;;;;5034404;28;20053;-71
2021/12/13 11:16:12;;;;;;;28.43;20.67;;;10.20;99.90;;;;;;5042229;28;20504;-71
2021/12/13 11:18:38;;;;;;;29.35;21.88;;;10.20;99.90;;;;;;5038899;28;20287;-71
2021/12/13 11:21:22;;;;;;;26.38;20.05;;;10.20;99.90;;;;;;5037795;28;20502;-71
2021/12/13 11:23:49;;;;;;;30.58;21.60;;;10.20;99.90;;;;;;5036945;28;20045;-71
2021/12/13 11:26:18;;;;;;;27.95;20.25;;;10.10;99.90;;;;;;5052758;28;20044;-75
2021/12/13 11:28:45;;;;;;;28.02;20.00;;;10.20;99.90;;;;;;5054223;28;20559;-74
2021/12/13 11:31:40;;;;;;;27.80;21.30;;;10.20;99.90;;;;;;5035610;28;20055;-74
2021/12/13 11:34:48;;;;;;;27.65;21.35;;;10.20;99.90;;;;;;5026362;28;20049;-75
2021/12/13 11:37:56;;;;;;;26.50;20.27;;;10.20;99.90;;;;;;5040484;28;20049;-75
2021/12/13 11:40:47;;;;;;;28.58;20.75;;;10.10;99.90;;;;;;5032222;28;20166;-75
2021/12/13 11:43:52;;;;;;;28.42;21.13;;;10.20;99.90;;;;;;5013890;28;20228;-75
2021/12/13 11:46:28;;;;;;;31.38;20.58;;;10.30;99.90;;;;;;5034633;28;20045;-75
2021/12/13 11:49:30;;;;;;;29.63;19.42;;;10.20;99.90;;;;;;5020275;28;20128;-71
2021/12/13 11:52:17;;;;;;;29.83;20.52;;;10.30;99.90;;;;;;5036978;28;20719;-70
2021/12/13 11:54:57;;;;;;;28.45;20.05;;;10.30;99.90;;;;;;5028608;28;20520;-71
2021/12/13 11:57:39;;;;;;;28.42;21.08;;;10.30;99.90;;;;;;5026450;28;20041;-71
2021/12/13 12:00:26;;;;;;;26.90;19.33;;;10.30;99.90;;;;;;5040879;28;20102;-71
2021/12/13 12:03:30;;;;;;;29.27;20.92;;;10.20;99.90;;;;;;5045658;28;20048;-71
2021/12/13 12:06:49;;;;;;;29.15;20.95;;;10.30;99.90;;;;;;5032857;28;20091;-71
2021/12/13 12:09:33;;;;;;;27.50;20.77;;;10.30;99.90;;;;;;5030738;28;20119;-70
2021/12/13 12:12:46;;;;;;;30.35;21.08;;;10.30;99.90;;;;;;5024763;28;20053;-70
2021/12/13 12:15:14;;;;;;;27.33;20.27;;;10.30;99.90;;;;;;5035037;28;20072;-71
2021/12/13 12:17:40;;;;;;;27.75;20.25;;;10.30;99.90;;;;;;5030808;28;20036;-71
2021/12/13 12:20:10;;;;;;;29.88;20.45;;;10.30;99.90;;;;;;4996742;28;20095;-71
2021/12/13 12:22:54;;;;;;;31.25;21.17;;;10.30;99.90;;;;;;5030024;28;20051;-71
2021/12/13 12:25:27;;;;;;;27.25;20.58;;;10.30;99.90;;;;;;5027588;28;20776;-71
2021/12/13 12:28:24;;;;;;;26.23;20.58;;;10.30;99.90;;;;;;5015333;28;20103;-71
2021/12/13 12:30:53;;;;;;;30.23;20.25;;;10.30;99.90;;;;;;5027116;28;20125;-72
2021/12/13 12:33:27;;;;;;;28.40;19.40;;;10.30;99.90;;;;;;5031314;28;21201;-71
2021/12/13 12:35:53;;;;;;;25.90;19.90;;;10.30;99.90;;;;;;5036660;28;20045;-71
2021/12/13 12:38:34;;;;;;;29.05;19.92;;;10.30;99.90;;;;;;5034049;28;20083;-71
2021/12/13 12:41:06;;;;;;;28.38;20.20;;;10.30;99.90;;;;;;5030619;28;20037;-70
2021/12/13 12:43:36;;;;;;;25.52;20.13;;;10.40;99.90;;;;;;5012340;28;20049;-70
2021/12/13 12:46:08;;;;;;;27.80;19.58;;;10.40;99.90;;;;;;5044195;28;20504;-71
2021/12/13 12:48:45;;;;;;;27.25;19.30;;;10.40;99.90;;;;;;5025312;28;20799;-71
2021/12/13 12:51:25;;;;;;;28.33;19.67;;;10.40;99.90;;;;;;5030957;28;20544;-71
2021/12/13 12:54:00;;;;;;;28.55;20.17;;;10.40;99.90;;;;;;5025772;28;20553;-71
2021/12/13 12:56:47;;;;;;;27.17;20.10;;;10.50;99.90;;;;;;5027368;28;20049;-71
2021/12/13 12:59:31;;;;;;;26.80;19.85;;;10.50;99.90;;;;;;5046919;28;20075;-71
2021/12/13 13:01:58;;;;;;;26.83;20.13;;;10.50;99.90;;;;;;5020784;28;20550;-71
2021/12/13 13:04:32;;;;;;;26.75;19.58;;;10.50;99.90;;;;;;5037643;28;20037;-72
2021/12/13 13:07:09;;;;;;;26.58;19.88;;;10.50;99.90;;;;;;5050185;28;20046;-72
2021/12/13 13:10:25;;;;;;;26.67;18.98;;;10.60;99.90;;;;;;5040705;28;20389;-72
2021/12/13 13:13:05;;;;;;;25.80;20.60;;;10.60;99.90;;;;;;5032881;28;20080;-71
2021/12/13 13:15:31;;;;;;;;;;;10.60;99.90;;;;;;5058669;28;20049;-71
2021/12/13 13:18:08;;;;;;;27.25;20.38;;;10.50;99.90;;;;;;5024186;28;20366;-71
2021/12/13 13:20:57;;;;;;;27.95;20.27;;;10.60;99.90;;;;;;5037101;28;20136;-72
2021/12/13 13:23:37;;;;;;;30.30;20.98;;;10.50;99.90;;;;;;5031528;28;20032;-71
2021/12/13 13:26:04;;;;;;;26.67;19.42;;;10.50;99.90;;;;;;5037151;28;20336;-71
2021/12/13 13:28:41;;;;;;;26.88;20.35;;;10.50;99.90;;;;;;5035336;28;20048;-71
2021/12/13 13:31:09;;;;;;;29.42;19.13;;;10.50;99.90;;;;;;5035288;28;20080;-71